Time;durP1;ratioP1;P1;durP2;ratioP2;P2;SDS_P1;SDS_P2;PMS_P1;PMS_P2;Temp;Humidity;BMP_temperature;BMP_pressure;BME280_temperature;BME280_humidity;BME280_pressure;Samples;Min_cycle;Max_cycle;Signal;HPM_P1;HPM_P2
2021/05/28 00:00:27;;;;;;;2.57;1.70;;;;;;;;;;5097681;28;20528;-71
2021/05/28 00:02:57;;;;;;;2.43;1.53;;;;;;;;;;5097033;28;20459;-71
2021/05/28 00:05:24;;;;;;;3.73;2.17;;;;;;;;;;5097612;28;20464;-71
2021/05/28 00:07:52;;;;;;;3.00;1.77;;;;;;;;;;5097317;28;20786;-71
2021/05/28 00:10:19;;;;;;;2.70;1.43;;;;;;;;;;5097355;28;20470;-72
2021/05/28 00:12:46;;;;;;;2.30;1.80;;;;;;;;;;5097588;28;20448;-71
2021/05/28 00:15:15;;;;;;;3.63;1.70;;;;;;;;;;5097094;28;20475;-72
2021/05/28 00:17:42;;;;;;;2.53;1.73;;;;;;;;;;5097530;28;20488;-72
2021/05/28 00:20:11;;;;;;;3.03;1.80;;;;;;;;;;5097121;28;20534;-71
2021/05/28 00:22:39;;;;;;;4.20;1.87;;;;;;;;;;5097384;28;20491;-71
2021/05/28 00:25:06;;;;;;;1.97;1.40;;;;;;;;;;5097632;28;20460;-72
2021/05/28 00:27:34;;;;;;;2.87;1.83;;;;;;;;;;5097462;28;20484;-72
2021/05/28 00:30:01;;;;;;;3.30;1.97;;;;;;;;;;5097336;28;20878;-72
2021/05/28 00:32:29;;;;;;;2.00;1.63;;;;;;;;;;5101303;27;20453;-72
2021/05/28 00:34:56;;;;;;;2.13;1.63;;;;;;;;;;5097416;28;20490;-72
2021/05/28 00:37:25;;;;;;;3.63;1.57;;;;;;;;;;5097599;28;20516;-72
2021/05/28 00:39:52;;;;;;;3.23;1.70;;;;;;;;;;5097837;28;20529;-72
2021/05/28 00:42:19;;;;;;;2.10;1.57;;;;;;;;;;5097095;28;20549;-72
2021/05/28 00:44:46;;;;;;;2.17;1.97;;;;;;;;;;5096735;28;20460;-72
2021/05/28 00:47:17;;;;;;;2.63;2.13;;;;;;;;;;5096472;28;20448;-72
2021/05/28 00:49:47;;;;;;;3.17;2.13;;;;;;;;;;5096770;28;20486;-72
2021/05/28 00:52:14;;;;;;;2.83;1.87;;;;;;;;;;5096859;28;20875;-72
2021/05/28 00:54:43;;;;;;;4.07;1.60;;;;;;;;;;5096305;28;20513;-72
2021/05/28 00:57:10;;;;;;;5.20;1.90;;;;;;;;;;5095789;28;20510;-72
2021/05/28 00:59:44;;;;;;;4.50;2.10;;;;;;;;;;5096141;28;20511;-72
2021/05/28 01:02:12;;;;;;;3.57;2.13;;;;;;;;;;5096334;28;21029;-71
2021/05/28 01:04:46;;;;;;;6.70;3.30;;;;;;;;;;5096392;28;20451;-72
2021/05/28 01:07:23;;;;;;;4.00;2.20;;;;;;;;;;5096302;28;20771;-72
2021/05/28 01:09:58;;;;;;;2.67;1.90;;;;;;;;;;5096801;28;20739;-72
2021/05/28 01:12:25;;;;;;;2.67;1.70;;;;;;;;;;5096069;28;20544;-71
2021/05/28 01:14:53;;;;;;;4.50;2.00;;;;;;;;;;5096454;28;21006;-72
2021/05/28 01:17:21;;;;;;;2.93;1.93;;;;;;;;;;5096289;28;20451;-72
2021/05/28 01:19:48;;;;;;;2.63;2.20;;;;;;;;;;5096450;28;20484;-72
2021/05/28 01:22:19;;;;;;;2.43;2.00;;;;;;;;;;5096319;28;20735;-71
2021/05/28 01:24:46;;;;;;;4.30;2.10;;;;;;;;;;5096392;28;20464;-72
2021/05/28 01:27:14;;;;;;;4.20;2.10;;;;;;;;;;5096929;28;20713;-71
2021/05/28 01:29:41;;;;;;;2.93;2.23;;;;;;;;;;5097129;28;20493;-72
2021/05/28 01:32:08;;;;;;;4.97;2.67;;;;;;;;;;5096487;28;20480;-72
2021/05/28 01:34:36;;;;;;;6.13;2.30;;;;;;;;;;5096141;28;20918;-72
2021/05/28 01:37:03;;;;;;;3.70;2.07;;;;;;;;;;5096304;28;20475;-72
2021/05/28 01:39:31;;;;;;;3.70;1.90;;;;;;;;;;5095833;28;20487;-73
2021/05/28 01:41:59;;;;;;;3.20;2.10;;;;;;;;;;5096360;28;20458;-72
2021/05/28 01:44:26;;;;;;;3.70;2.70;;;;;;;;;;5097610;28;20479;-72
2021/05/28 01:46:53;;;;;;;5.60;2.87;;;;;;;;;;5100127;28;20532;-72
2021/05/28 01:49:20;;;;;;;3.80;2.30;;;;;;;;;;5100212;28;20826;-71
2021/05/28 01:51:51;;;;;;;5.17;2.53;;;;;;;;;;5100132;28;20532;-72
2021/05/28 01:54:19;;;;;;;4.90;3.20;;;;;;;;;;5100431;28;20491;-72
2021/05/28 01:56:47;;;;;;;4.50;4.10;;;;;;;;;;5099471;28;20460;-71
2021/05/28 01:59:18;;;;;;;3.93;2.80;;;;;;;;;;5099562;28;20499;-72
2021/05/28 02:01:45;;;;;;;4.20;2.93;;;;;;;;;;5099745;28;20503;-72
2021/05/28 02:04:14;;;;;;;4.07;3.70;;;;;;;;;;5099488;28;20760;-72
2021/05/28 02:06:43;;;;;;;5.03;2.90;;;;;;;;;;5099515;28;20499;-72
2021/05/28 02:09:11;;;;;;;4.17;3.30;;;;;;;;;;5099521;28;20555;-72
2021/05/28 02:11:38;;;;;;;7.60;3.70;;;;;;;;;;5100090;28;20794;-72
2021/05/28 02:14:11;;;;;;;4.13;3.00;;;;;;;;;;5100103;28;20675;-72
2021/05/28 02:16:43;;;;;;;5.93;3.70;;;;;;;;;;5099679;28;20466;-72
2021/05/28 02:19:11;;;;;;;5.00;3.07;;;;;;;;;;5102189;28;20487;-72
2021/05/28 02:21:41;;;;;;;11.07;3.50;;;;;;;;;;5120730;27;20518;-72
2021/05/28 02:24:14;;;;;;;6.73;3.80;;;;;;;;;;5120248;27;20492;-72
2021/05/28 02:26:41;;;;;;;10.50;4.97;;;;;;;;;;5119666;27;20459;-72
2021/05/28 02:29:12;;;;;;;7.03;4.10;;;;;;;;;;5119938;27;20727;-72
2021/05/28 02:31:40;;;;;;;11.40;4.00;;;;;;;;;;5119703;27;20523;-72
2021/05/28 02:34:07;;;;;;;9.60;4.50;;;;;;;;;;5119354;27;20493;-72
2021/05/28 02:36:40;;;;;;;6.60;4.90;;;;;;;;;;5119663;27;20480;-72
2021/05/28 02:39:07;;;;;;;12.30;5.43;;;;;;;;;;5118845;27;20765;-72
2021/05/28 02:41:35;;;;;;;7.53;4.40;;;;;;;;;;5119236;27;20561;-72
2021/05/28 02:44:04;;;;;;;11.20;4.93;;;;;;;;;;5119088;27;20866;-72
2021/05/28 02:46:34;;;;;;;10.17;4.70;;;;;;;;;;5120077;27;20734;-73
2021/05/28 02:49:07;;;;;;;6.47;4.67;;;;;;;;;;5118663;27;20964;-72
2021/05/28 02:51:38;;;;;;;6.30;4.30;;;;;;;;;;5118772;27;20455;-72
2021/05/28 02:54:06;;;;;;;7.63;4.90;;;;;;;;;;5119839;27;20463;-72
2021/05/28 02:56:33;;;;;;;9.33;4.83;;;;;;;;;;5118193;27;20506;-72
2021/05/28 02:59:02;;;;;;;8.70;3.67;;;;;;;;;;5119099;27;20483;-72
2021/05/28 03:01:31;;;;;;;6.97;4.30;;;;;;;;;;5118145;27;20777;-72
2021/05/28 03:04:05;;;;;;;9.20;4.50;;;;;;;;;;5118910;27;20849;-72
2021/05/28 03:06:33;;;;;;;7.47;5.30;;;;;;;;;;5118943;27;20463;-72
2021/05/28 03:09:00;;;;;;;8.53;5.23;;;;;;;;;;5118583;27;20881;-72
2021/05/28 03:11:27;;;;;;;7.40;4.20;;;;;;;;;;5118046;27;20523;-72
2021/05/28 03:13:54;;;;;;;8.80;5.00;;;;;;;;;;5106343;27;20472;-72
2021/05/28 03:16:24;;;;;;;7.07;4.20;;;;;;;;;;5099110;28;20880;-72
2021/05/28 03:18:53;;;;;;;6.27;4.77;;;;;;;;;;5098691;27;20760;-72
2021/05/28 03:21:24;;;;;;;8.63;4.00;;;;;;;;;;5098260;28;20468;-72
2021/05/28 03:23:52;;;;;;;9.80;5.10;;;;;;;;;;5098551;28;20448;-72
2021/05/28 03:26:20;;;;;;;6.60;4.60;;;;;;;;;;5098646;28;20455;-72
2021/05/28 03:28:48;;;;;;;6.27;4.47;;;;;;;;;;5098008;28;20463;-72
2021/05/28 03:31:16;;;;;;;7.50;4.37;;;;;;;;;;5097369;28;20456;-72
2021/05/28 03:33:43;;;;;;;8.43;4.40;;;;;;;;;;5097995;28;20478;-71
2021/05/28 03:36:13;;;;;;;7.60;4.10;;;;;;;;;;5097691;28;20487;-72
2021/05/28 03:38:41;;;;;;;8.17;4.37;;;;;;;;;;5097967;28;20852;-71
2021/05/28 03:41:09;;;;;;;13.93;4.50;;;;;;;;;;5098217;28;20456;-72
2021/05/28 03:43:42;;;;;;;7.27;3.73;;;;;;;;;;5097080;28;20552;-72
2021/05/28 03:46:10;;;;;;;9.43;5.30;;;;;;;;;;5098042;28;20456;-72
2021/05/28 03:48:41;;;;;;;8.40;5.17;;;;;;;;;;5098084;28;20452;-71
2021/05/28 03:51:11;;;;;;;10.40;4.13;;;;;;;;;;5097159;28;20494;-72
2021/05/28 03:53:41;;;;;;;8.57;4.10;;;;;;;;;;5097538;28;20860;-73
2021/05/28 03:56:12;;;;;;;8.47;4.70;;;;;;;;;;5097065;28;20474;-71
2021/05/28 03:58:40;;;;;;;8.00;4.20;;;;;;;;;;5097655;28;20600;-71
2021/05/28 04:01:17;;;;;;;8.30;4.03;;;;;;;;;;5097131;28;20478;-72
2021/05/28 04:03:49;;;;;;;10.80;5.40;;;;;;;;;;5096779;28;20736;-71
2021/05/28 04:06:16;;;;;;;13.30;4.47;;;;;;;;;;5097212;28;20494;-71
2021/05/28 04:08:43;;;;;;;6.93;4.27;;;;;;;;;;5100558;28;20514;-72
2021/05/28 04:11:11;;;;;;;10.43;4.63;;;;;;;;;;5096806;28;20532;-71
2021/05/28 04:13:39;;;;;;;6.87;3.83;;;;;;;;;;5097255;28;20735;-70
2021/05/28 04:16:06;;;;;;;6.20;3.70;;;;;;;;;;5097291;28;20495;-72
2021/05/28 04:18:33;;;;;;;10.63;5.30;;;;;;;;;;5097219;28;20508;-72
2021/05/28 04:21:01;;;;;;;5.50;4.00;;;;;;;;;;5097036;28;20452;-71
2021/05/28 04:23:29;;;;;;;7.30;4.37;;;;;;;;;;5097382;28;20459;-72
2021/05/28 04:25:56;;;;;;;5.57;4.10;;;;;;;;;;5096905;28;21090;-71
2021/05/28 04:28:26;;;;;;;7.97;4.27;;;;;;;;;;5096655;28;20460;-72
2021/05/28 04:30:53;;;;;;;8.40;4.13;;;;;;;;;;5096511;28;20463;-72
2021/05/28 04:33:20;;;;;;;10.93;4.60;;;;;;;;;;5115664;27;20744;-73
2021/05/28 04:35:47;;;;;;;4.80;3.07;;;;;;;;;;5116753;27;20463;-72
2021/05/28 04:38:15;;;;;;;9.37;3.97;;;;;;;;;;5116336;27;20465;-72
2021/05/28 04:40:42;;;;;;;4.80;3.30;;;;;;;;;;5115933;27;20490;-72
2021/05/28 04:43:09;;;;;;;9.10;3.80;;;;;;;;;;5116819;27;21069;-72
2021/05/28 04:45:38;;;;;;;5.43;3.23;;;;;;;;;;5116139;27;20709;-72
2021/05/28 04:48:06;;;;;;;7.47;3.27;;;;;;;;;;5116141;27;20538;-73
2021/05/28 04:50:35;;;;;;;5.23;2.87;;;;;;;;;;5115315;27;20458;-72
2021/05/28 04:53:03;;;;;;;4.30;3.00;;;;;;;;;;5116439;27;20466;-72
2021/05/28 04:55:32;;;;;;;6.43;3.47;;;;;;;;;;5102377;27;20871;-73
2021/05/28 04:57:59;;;;;;;7.53;3.00;;;;;;;;;;5116845;27;20463;-72
2021/05/28 05:00:26;;;;;;;3.20;2.30;;;;;;;;;;5117559;27;20490;-72
2021/05/28 05:02:58;;;;;;;4.10;2.60;;;;;;;;;;5115492;27;20463;-71
2021/05/28 05:05:27;;;;;;;6.20;3.10;;;;;;;;;;5115711;27;20536;-73
2021/05/28 05:08:08;;;;;;;4.33;2.93;;;;;;;;;;5113128;27;20862;-72
2021/05/28 05:10:35;;;;;;;3.53;2.63;;;;;;;;;;5114542;27;20462;-72
2021/05/28 05:13:10;;;;;;;6.63;2.60;;;;;;;;;;5116149;27;20466;-72
2021/05/28 05:15:38;;;;;;;10.13;3.13;;;;;;;;;;5116158;27;20777;-72
2021/05/28 05:18:09;;;;;;;4.40;2.90;;;;;;;;;;5114878;27;20492;-71
2021/05/28 05:20:36;;;;;;;8.47;2.80;;;;;;;;;;5117734;27;20512;-72
2021/05/28 05:23:04;;;;;;;3.70;2.83;;;;;;;;;;5118482;27;20502;-72
2021/05/28 05:25:31;;;;;;;7.50;2.70;;;;;;;;;;5118539;27;20869;-72
2021/05/28 05:27:59;;;;;;;3.87;2.40;;;;;;;;;;5118590;27;20454;-72
2021/05/28 05:30:26;;;;;;;5.40;2.03;;;;;;;;;;5105704;27;20463;-71
2021/05/28 05:32:54;;;;;;;5.07;3.27;;;;;;;;;;5110398;28;20460;-72
2021/05/28 05:35:22;;;;;;;6.57;2.13;;;;;;;;;;5098376;28;20459;-71
2021/05/28 05:37:49;;;;;;;5.00;2.33;;;;;;;;;;5098028;28;20498;-72
2021/05/28 05:40:17;;;;;;;4.37;2.60;;;;;;;;;;5097665;28;20491;-72
2021/05/28 05:42:45;;;;;;;4.37;2.30;;;;;;;;;;5118468;27;20530;-72
2021/05/28 05:45:13;;;;;;;5.07;2.50;;;;;;;;;;5118787;27;20446;-71
2021/05/28 05:47:43;;;;;;;3.90;2.00;;;;;;;;;;5118693;27;20465;-70
2021/05/28 05:50:11;;;;;;;5.20;2.30;;;;;;;;;;5118664;27;20454;-71
2021/05/28 05:52:40;;;;;;;3.97;2.87;;;;;;;;;;5119095;27;20866;-72
2021/05/28 05:55:08;;;;;;;5.40;2.30;;;;;;;;;;5118642;27;20450;-71
2021/05/28 05:57:35;;;;;;;7.27;3.47;;;;;;;;;;5114984;27;20451;-71
2021/05/28 06:00:02;;;;;;;5.27;2.50;;;;;;;;;;5098485;28;20487;-71
2021/05/28 06:02:29;;;;;;;6.67;3.10;;;;;;;;;;5097780;28;20550;-72
2021/05/28 06:04:57;;;;;;;3.07;2.33;;;;;;;;;;5098564;28;20462;-72
2021/05/28 06:07:24;;;;;;;5.73;2.63;;;;;;;;;;5098345;28;20463;-72
2021/05/28 06:09:57;;;;;;;7.60;2.50;;;;;;;;;;5097888;28;20704;-72
2021/05/28 06:12:25;;;;;;;5.57;2.30;;;;;;;;;;5096781;28;20459;-72
2021/05/28 06:14:55;;;;;;;4.80;2.73;;;;;;;;;;5097355;28;20474;-72
2021/05/28 06:17:23;;;;;;;6.90;2.43;;;;;;;;;;5097336;28;20463;-72
2021/05/28 06:19:52;;;;;;;4.67;2.47;;;;;;;;;;5098063;28;20491;-72
2021/05/28 06:22:21;;;;;;;4.40;2.60;;;;;;;;;;5099200;28;20471;-72
2021/05/28 06:24:48;;;;;;;7.37;3.70;;;;;;;;;;5097180;28;20542;-71
2021/05/28 06:27:17;;;;;;;7.53;3.70;;;;;;;;;;5100200;28;20961;-72
2021/05/28 06:29:47;;;;;;;3.43;2.20;;;;;;;;;;5118788;27;20497;-71
2021/05/28 06:32:15;;;;;;;8.30;2.17;;;;;;;;;;5114062;27;20459;-71
2021/05/28 06:34:42;;;;;;;8.97;2.43;;;;;;;;;;5098064;28;20451;-71
2021/05/28 06:37:09;;;;;;;5.70;2.33;;;;;;;;;;5098339;28;20463;-70
2021/05/28 06:39:39;;;;;;;4.17;1.90;;;;;;;;;;5097807;28;20548;-70
2021/05/28 06:42:07;;;;;;;5.40;3.13;;;;;;;;;;5096186;28;20471;-71
2021/05/28 06:44:35;;;;;;;7.40;3.03;;;;;;;;;;5097596;28;20474;-71
2021/05/28 06:47:02;;;;;;;4.60;2.17;;;;;;;;;;5097764;28;20976;-71
2021/05/28 06:49:29;;;;;;;4.77;2.73;;;;;;;;;;5101010;28;20541;-71
2021/05/28 06:51:57;;;;;;;6.27;2.97;;;;;;;;;;5119119;27;20815;-71
2021/05/28 06:54:24;;;;;;;5.13;3.40;;;;;;;;;;5118475;27;20790;-71
2021/05/28 06:56:51;;;;;;;8.87;4.43;;;;;;;;;;5118119;27;21093;-71
2021/05/28 06:59:19;;;;;;;4.03;3.10;;;;;;;;;;5117345;27;20483;-71
2021/05/28 07:01:48;;;;;;;6.87;3.80;;;;;;;;;;5117854;27;20451;-70
2021/05/28 07:04:20;;;;;;;4.70;2.90;;;;;;;;;;5118050;27;20491;-69
2021/05/28 07:06:47;;;;;;;6.07;3.30;;;;;;;;;;5113789;28;20828;-69
2021/05/28 07:09:14;;;;;;;5.70;2.97;;;;;;;;;;5097381;28;20451;-70
2021/05/28 07:11:41;;;;;;;4.20;3.70;;;;;;;;;;5096499;28;20455;-70
2021/05/28 07:14:09;;;;;;;3.63;2.80;;;;;;;;;;5097421;28;20538;-69
2021/05/28 07:16:39;;;;;;;4.87;3.60;;;;;;;;;;5101383;28;20455;-72
2021/05/28 07:19:11;;;;;;;5.70;2.90;;;;;;;;;;5104783;27;20511;-70
2021/05/28 07:21:40;;;;;;;6.30;3.50;;;;;;;;;;5096932;28;20467;-70
2021/05/28 07:24:08;;;;;;;7.27;3.30;;;;;;;;;;5097554;28;20540;-71
2021/05/28 07:26:35;;;;;;;5.80;3.27;;;;;;;;;;5097103;28;20459;-70
2021/05/28 07:29:02;;;;;;;5.50;2.70;;;;;;;;;;5102415;28;20456;-73
2021/05/28 07:31:34;;;;;;;9.10;3.20;;;;;;;;;;5100075;27;20456;-71
2021/05/28 07:34:01;;;;;;;6.17;3.10;;;;;;;;;;5080124;28;20451;-70
2021/05/28 07:36:43;;;;;;;4.77;3.20;;;;;;;;;;5096853;28;20483;-72
2021/05/28 07:39:11;;;;;;;5.93;3.83;;;;;;;;;;5096722;28;20762;-71
2021/05/28 07:41:38;;;;;;;6.00;3.60;;;;;;;;;;5094936;28;20543;-71
2021/05/28 07:44:06;;;;;;;5.37;3.47;;;;;;;;;;5097246;28;20467;-71
2021/05/28 07:46:39;;;;;;;5.87;4.50;;;;;;;;;;5107777;27;20835;-70
2021/05/28 07:49:07;;;;;;;7.00;4.10;;;;;;;;;;5117348;27;20484;-71
2021/05/28 07:51:36;;;;;;;7.03;3.87;;;;;;;;;;5116744;27;20454;-71
2021/05/28 07:54:03;;;;;;;7.33;4.77;;;;;;;;;;5115346;27;20475;-71
2021/05/28 07:56:31;;;;;;;7.07;4.50;;;;;;;;;;5116331;27;20450;-71
2021/05/28 07:58:59;;;;;;;9.73;3.90;;;;;;;;;;5101352;27;20455;-71
2021/05/28 08:01:28;;;;;;;7.83;4.63;;;;;;;;;;5104824;27;20455;-72
2021/05/28 08:03:58;;;;;;;7.13;5.13;;;;;;;;;;5106756;27;20491;-71
2021/05/28 08:06:26;;;;;;;4.80;3.67;;;;;;;;;;5106722;27;20522;-72
2021/05/28 08:08:55;;;;;;;5.80;4.53;;;;;;;;;;5116329;27;20550;-71
2021/05/28 08:11:23;;;;;;;5.40;3.60;;;;;;;;;;5097776;28;20456;-71
2021/05/28 08:13:50;;;;;;;7.13;4.20;;;;;;;;;;5097548;27;20763;-71
2021/05/28 08:16:21;;;;;;;6.20;4.10;;;;;;;;;;5098969;27;20889;-70
2021/05/28 08:18:54;;;;;;;9.80;4.30;;;;;;;;;;5097820;27;20526;-72
2021/05/28 08:21:21;;;;;;;6.43;4.07;;;;;;;;;;5099204;27;20897;-71
2021/05/28 08:23:54;;;;;;;8.87;6.77;;;;;;;;;;5113346;27;20462;-72
2021/05/28 08:26:35;;;;;;;8.80;4.07;;;;;;;;;;5116268;27;20802;-71
2021/05/28 08:29:02;;;;;;;4.87;3.33;;;;;;;;;;5117111;27;20446;-72
2021/05/28 08:37:38;;;;;;;8.00;5.30;;;;;;;;;;5112831;27;20882;-71
2021/05/28 08:40:15;;;;;;;7.23;3.97;;;;;;;;;;5081925;27;20487;-70
2021/05/28 08:42:59;;;;;;;10.20;4.97;;;;;;;;;;5101497;28;20458;-71
2021/05/28 08:45:33;;;;;;;13.50;7.00;;;;;;;;;;5115931;27;20520;-71
2021/05/28 08:50:56;;;;;;;6.10;4.63;;;;;;;;;;5080947;27;20453;-70
2021/05/28 08:53:34;;;;;;;7.20;4.60;;;;;;;;;;5082604;28;20444;-70
2021/05/28 08:56:13;;;;;;;9.53;4.27;;;;;;;;;;5108838;28;20920;-71
2021/05/28 08:58:53;;;;;;;6.10;3.97;;;;;;;;;;5119862;27;20454;-70
2021/05/28 09:01:21;;;;;;;11.00;5.07;;;;;;;;;;5118547;27;20462;-71
2021/05/28 09:03:59;;;;;;;8.90;5.40;;;;;;;;;;5114361;27;21162;-72
2021/05/28 09:06:51;;;;;;;;;;;;;;;;;;;;;
2021/05/28 09:09:27;;;;;;;8.73;3.50;;;;;;;;;;5105493;27;20462;-71
2021/05/28 09:12:07;;;;;;;7.87;4.70;;;;;;;;;;5118549;27;20507;-70
2021/05/28 09:14:44;;;;;;;7.13;4.00;;;;;;;;;;5099711;27;20524;-70
2021/05/28 09:17:15;;;;;;;9.83;4.57;;;;;;;;;;5100430;27;20451;-69
2021/05/28 09:22:53;;;;;;;10.30;4.17;;;;;;;;;;5073033;27;20812;-72
2021/05/28 09:25:28;;;;;;;7.83;5.03;;;;;;;;;;5099974;27;20452;-71
2021/05/28 09:27:58;;;;;;;9.40;4.87;;;;;;;;;;5115850;27;20437;-70
2021/05/28 09:30:31;;;;;;;12.40;5.47;;;;;;;;;;5118924;27;20458;-71
2021/05/28 09:33:00;;;;;;;6.33;4.27;;;;;;;;;;5107459;27;20456;-69
2021/05/28 09:35:43;;;;;;;8.27;4.97;;;;;;;;;;5098783;27;21372;-70
2021/05/28 09:38:21;;;;;;;4.37;3.20;;;;;;;;;;5108767;27;20463;-70
2021/05/28 09:40:51;;;;;;;7.90;4.40;;;;;;;;;;5118637;27;20482;-69
2021/05/28 09:43:33;;;;;;;5.60;3.40;;;;;;;;;;5107219;27;20471;-71
2021/05/28 09:46:12;;;;;;;6.20;4.03;;;;;;;;;;5085358;27;20459;-71
2021/05/28 09:48:40;;;;;;;9.87;6.47;;;;;;;;;;5099663;28;20486;-70
2021/05/28 09:51:13;;;;;;;15.23;4.33;;;;;;;;;;5098881;28;20492;-70
2021/05/28 09:54:03;;;;;;;5.50;3.80;;;;;;;;;;5102898;27;20486;-71
2021/05/28 09:59:25;;;;;;;11.90;4.83;;;;;;;;;;5114915;27;20458;-70
2021/05/28 10:02:04;;;;;;;8.90;4.33;;;;;;;;;;5118844;27;20485;-70
2021/05/28 10:04:37;;;;;;;6.47;3.80;;;;;;;;;;5114680;27;20635;-69
2021/05/28 10:07:10;;;;;;;10.57;4.83;;;;;;;;;;5094436;28;20463;-70
2021/05/28 10:09:40;;;;;;;10.23;4.43;;;;;;;;;;5097427;28;20471;-69
2021/05/28 10:12:17;;;;;;;7.20;4.70;;;;;;;;;;5097343;28;20474;-70
2021/05/28 10:14:51;;;;;;;6.80;4.17;;;;;;;;;;5136413;27;21086;-70
2021/05/28 10:17:37;;;;;;;7.77;5.13;;;;;;;;;;5139553;27;20450;-70
2021/05/28 10:20:18;;;;;;;8.60;4.50;;;;;;;;;;5138811;27;20493;-68
2021/05/28 10:22:57;;;;;;;11.33;4.90;;;;;;;;;;5135830;27;20985;-70
2021/05/28 10:25:33;;;;;;;10.70;4.97;;;;;;;;;;5124133;27;20851;-70
2021/05/28 10:28:02;;;;;;;9.83;5.40;;;;;;;;;;5097910;28;20469;-70
2021/05/28 10:30:30;;;;;;;9.63;5.90;;;;;;;;;;5111316;27;20455;-71
2021/05/28 10:33:28;;;;;;;7.87;4.87;;;;;;;;;;5106988;28;20458;-72
2021/05/28 10:36:03;;;;;;;5.93;4.33;;;;;;;;;;5118537;27;20447;-71
2021/05/28 10:38:52;;;;;;;7.63;4.87;;;;;;;;;;5115871;27;20943;-70
2021/05/28 10:41:52;;;;;;;12.37;5.50;;;;;;;;;;5119036;27;20494;-72
2021/05/28 10:44:30;;;;;;;11.20;7.10;;;;;;;;;;5116833;27;20486;-71
2021/05/28 10:46:59;;;;;;;10.37;5.00;;;;;;;;;;5117878;27;20446;-70
2021/05/28 10:49:37;;;;;;;12.57;4.07;;;;;;;;;;5119093;27;21029;-70
2021/05/28 10:52:07;;;;;;;8.87;5.60;;;;;;;;;;5110372;27;20466;-71
2021/05/28 10:54:56;;;;;;;6.60;4.63;;;;;;;;;;5097967;28;20507;-71
2021/05/28 10:57:31;;;;;;;7.40;4.83;;;;;;;;;;5096003;27;20472;-71
2021/05/28 11:00:04;;;;;;;7.50;5.00;;;;;;;;;;5097798;28;20479;-70
2021/05/28 11:03:01;;;;;;;8.57;5.27;;;;;;;;;;5096603;28;20459;-72
2021/05/28 11:05:50;;;;;;;10.60;5.30;;;;;;;;;;5096894;28;20454;-72
2021/05/28 11:08:43;;;;;;;10.27;5.13;;;;;;;;;;5099516;27;20460;-70
2021/05/28 11:11:28;;;;;;;8.20;4.77;;;;;;;;;;5099001;28;20463;-71
2021/05/28 11:13:55;;;;;;;8.23;5.67;;;;;;;;;;5091350;28;20491;-70
2021/05/28 11:16:23;;;;;;;7.20;4.33;;;;;;;;;;5117218;27;20556;-70
2021/05/28 11:18:51;;;;;;;8.83;5.70;;;;;;;;;;5113041;27;20451;-71
2021/05/28 11:21:23;;;;;;;8.50;4.30;;;;;;;;;;5101853;28;20478;-71
2021/05/28 11:23:56;;;;;;;6.93;4.23;;;;;;;;;;5096293;28;20553;-72
2021/05/28 11:26:27;;;;;;;8.27;4.50;;;;;;;;;;5096673;28;20456;-72
2021/05/28 11:28:56;;;;;;;6.10;4.80;;;;;;;;;;5097358;28;20472;-70
2021/05/28 11:31:27;;;;;;;5.80;4.27;;;;;;;;;;5096539;28;20997;-70
2021/05/28 11:34:01;;;;;;;6.90;4.23;;;;;;;;;;5101319;28;20725;-70
2021/05/28 11:36:46;;;;;;;6.70;4.03;;;;;;;;;;5116716;27;20450;-69
2021/05/28 11:39:34;;;;;;;6.70;4.20;;;;;;;;;;5113680;27;20452;-69
2021/05/28 11:42:03;;;;;;;8.80;4.73;;;;;;;;;;5096538;28;20595;-69
2021/05/28 11:44:31;;;;;;;7.33;4.23;;;;;;;;;;5096168;28;20470;-70
2021/05/28 11:47:07;;;;;;;9.23;4.53;;;;;;;;;;5096384;28;20611;-70
2021/05/28 11:49:38;;;;;;;8.63;4.80;;;;;;;;;;5116394;27;20538;-70
2021/05/28 11:52:08;;;;;;;10.53;4.93;;;;;;;;;;5116621;27;20557;-71
2021/05/28 11:54:37;;;;;;;6.50;4.53;;;;;;;;;;5116309;27;20482;-70
2021/05/28 11:57:24;;;;;;;7.93;4.10;;;;;;;;;;5113209;27;20446;-70
2021/05/28 11:59:58;;;;;;;8.93;3.80;;;;;;;;;;5116412;27;20838;-71
2021/05/28 12:02:43;;;;;;;7.80;4.37;;;;;;;;;;5116972;27;20462;-73
2021/05/28 12:05:20;;;;;;;10.00;4.90;;;;;;;;;;5116968;27;20459;-69
2021/05/28 12:07:56;;;;;;;15.57;4.40;;;;;;;;;;5113044;27;20509;-69
2021/05/28 12:10:27;;;;;;;7.43;4.20;;;;;;;;;;5112672;28;20470;-70
2021/05/28 12:13:07;;;;;;;13.07;4.47;;;;;;;;;;5120548;27;20455;-71
2021/05/28 12:15:58;;;;;;;7.63;3.63;;;;;;;;;;5122533;27;20728;-70
2021/05/28 12:18:27;;;;;;;10.53;4.63;;;;;;;;;;5118012;27;20754;-70
2021/05/28 12:21:02;;;;;;;8.17;4.47;;;;;;;;;;5116223;27;20487;-72
2021/05/28 12:23:30;;;;;;;9.43;4.27;;;;;;;;;;5116524;27;20451;-73
2021/05/28 12:26:10;;;;;;;5.80;3.63;;;;;;;;;;5113661;28;20454;-69
2021/05/28 12:28:38;;;;;;;6.27;4.00;;;;;;;;;;5114216;27;20450;-71
2021/05/28 12:31:06;;;;;;;8.00;3.60;;;;;;;;;;5096297;27;20458;-71
2021/05/28 12:33:33;;;;;;;5.70;3.70;;;;;;;;;;5112442;27;20465;-71
2021/05/28 12:36:05;;;;;;;4.60;2.43;;;;;;;;;;5095601;28;20491;-71
2021/05/28 12:38:39;;;;;;;8.00;3.80;;;;;;;;;;5095883;28;20466;-71
2021/05/28 12:41:08;;;;;;;6.10;3.43;;;;;;;;;;5095566;28;20758;-73
2021/05/28 12:43:42;;;;;;;8.47;4.50;;;;;;;;;;5094105;28;20459;-71
2021/05/28 12:46:17;;;;;;;9.47;4.90;;;;;;;;;;5094154;28;20451;-71
2021/05/28 12:48:45;;;;;;;6.20;3.60;;;;;;;;;;5093338;28;20548;-71
2021/05/28 12:51:17;;;;;;;7.20;4.30;;;;;;;;;;5093650;28;20528;-71
2021/05/28 12:53:46;;;;;;;9.33;3.87;;;;;;;;;;5094520;28;20537;-71
2021/05/28 12:56:24;;;;;;;10.30;4.53;;;;;;;;;;5095156;28;20456;-71
2021/05/28 12:58:54;;;;;;;7.17;4.70;;;;;;;;;;5103362;27;20962;-72
2021/05/28 13:01:25;;;;;;;8.00;3.30;;;;;;;;;;5097882;27;20493;-70
2021/05/28 13:03:53;;;;;;;7.37;4.73;;;;;;;;;;5095883;27;20463;-71
2021/05/28 13:06:24;;;;;;;7.07;3.90;;;;;;;;;;5096157;27;20864;-71
2021/05/28 13:08:52;;;;;;;5.03;3.53;;;;;;;;;;5096814;27;20492;-71
2021/05/28 13:11:20;;;;;;;5.70;3.30;;;;;;;;;;5117725;27;20461;-70
2021/05/28 13:13:49;;;;;;;7.90;3.30;;;;;;;;;;5115712;27;20518;-70
2021/05/28 13:16:24;;;;;;;4.23;3.27;;;;;;;;;;5115498;27;20455;-70
2021/05/28 13:18:56;;;;;;;5.40;2.80;;;;;;;;;;5114833;27;20463;-71
2021/05/28 13:21:27;;;;;;;5.53;2.70;;;;;;;;;;5096104;28;20636;-70
2021/05/28 13:23:58;;;;;;;5.90;3.10;;;;;;;;;;5111526;27;20455;-70
2021/05/28 13:26:31;;;;;;;4.63;2.90;;;;;;;;;;5106589;27;20464;-71
2021/05/28 13:29:03;;;;;;;4.27;3.37;;;;;;;;;;5116375;27;20447;-70
2021/05/28 13:31:30;;;;;;;5.27;2.93;;;;;;;;;;5115347;27;20464;-70
2021/05/28 13:34:10;;;;;;;4.83;3.20;;;;;;;;;;5113682;27;20453;-71
2021/05/28 13:36:40;;;;;;;7.20;3.03;;;;;;;;;;5115075;27;20813;-71
2021/05/28 13:39:08;;;;;;;6.23;3.03;;;;;;;;;;5098153;28;20452;-70
2021/05/28 13:41:36;;;;;;;5.63;3.40;;;;;;;;;;5097523;28;20498;-70
2021/05/28 13:44:05;;;;;;;7.27;3.50;;;;;;;;;;5108595;27;20532;-70
2021/05/28 13:46:33;;;;;;;7.00;2.97;;;;;;;;;;5118796;27;20485;-70
2021/05/28 13:49:02;;;;;;;4.93;2.63;;;;;;;;;;5115096;27;20450;-70
2021/05/28 13:51:29;;;;;;;4.97;2.90;;;;;;;;;;5118652;27;20796;-70
2021/05/28 13:53:57;;;;;;;5.77;2.93;;;;;;;;;;5116040;27;20466;-69
2021/05/28 13:56:27;;;;;;;4.77;2.47;;;;;;;;;;5101213;27;20444;-70
2021/05/28 13:58:55;;;;;;;5.20;2.57;;;;;;;;;;5101446;27;20455;-70
2021/05/28 14:01:23;;;;;;;5.73;2.93;;;;;;;;;;5097724;28;20483;-70
2021/05/28 14:03:50;;;;;;;5.43;3.43;;;;;;;;;;5106683;27;20478;-70
2021/05/28 14:06:25;;;;;;;8.50;3.33;;;;;;;;;;5101253;28;20783;-70
2021/05/28 14:09:02;;;;;;;5.83;2.27;;;;;;;;;;5118862;27;20473;-70
2021/05/28 14:11:46;;;;;;;4.57;2.23;;;;;;;;;;5119768;27;20557;-71
2021/05/28 14:14:44;;;;;;;4.33;2.33;;;;;;;;;;5102747;27;20725;-71
2021/05/28 14:17:35;;;;;;;4.40;2.40;;;;;;;;;;5085448;28;20463;-69
2021/05/28 14:20:28;;;;;;;3.00;1.70;;;;;;;;;;5099203;28;20506;-71
2021/05/28 14:22:59;;;;;;;3.77;1.67;;;;;;;;;;5097945;27;20485;-71
2021/05/28 14:25:29;;;;;;;2.63;1.63;;;;;;;;;;5097428;28;20867;-71
2021/05/28 14:28:01;;;;;;;4.03;1.70;;;;;;;;;;5098616;28;20699;-71
2021/05/28 14:30:31;;;;;;;6.27;2.27;;;;;;;;;;5098590;27;20492;-71
2021/05/28 14:33:09;;;;;;;2.57;1.80;;;;;;;;;;5117894;27;21126;-72
2021/05/28 14:35:50;;;;;;;2.17;1.30;;;;;;;;;;5118669;27;20463;-71
2021/05/28 14:38:18;;;;;;;3.53;1.90;;;;;;;;;;5113810;27;20454;-71
2021/05/28 14:41:01;;;;;;;3.40;1.57;;;;;;;;;;5104917;28;20498;-71
2021/05/28 14:43:34;;;;;;;4.23;1.80;;;;;;;;;;5096947;28;20504;-69
2021/05/28 14:47:11;;;;;;;4.97;1.93;;;;;;;;;;5097122;27;20952;-72
2021/05/28 14:59:39;;;;;;;7.27;1.87;;;;;;;;;;5060401;28;20557;-72
2021/05/28 15:05:55;;;;;;;2.80;1.97;;;;;;;;;;5111047;27;20549;-72
2021/05/28 15:08:56;;;;;;;4.87;2.37;;;;;;;;;;5098057;28;20479;-71
2021/05/28 15:14:33;;;;;;;5.33;2.70;;;;;;;;;;5101935;27;21079;-71
2021/05/28 15:17:24;;;;;;;4.37;2.57;;;;;;;;;;5100753;28;20452;-70
2021/05/28 15:19:57;;;;;;;6.00;2.57;;;;;;;;;;5097321;28;20504;-70
2021/05/28 15:22:33;;;;;;;5.67;2.10;;;;;;;;;;5098144;28;20559;-70
2021/05/28 15:25:04;;;;;;;6.73;2.27;;;;;;;;;;5098583;27;20458;-70
2021/05/28 15:27:34;;;;;;;3.63;1.80;;;;;;;;;;5098485;27;20455;-70
2021/05/28 15:30:01;;;;;;;5.03;2.13;;;;;;;;;;5116702;27;20902;-70
2021/05/28 15:32:54;;;;;;;4.70;2.27;;;;;;;;;;5117373;27;20865;-70
2021/05/28 15:41:32;;;;;;;7.20;2.70;;;;;;;;;;5035433;28;20569;-71
2021/05/28 15:47:06;;;;;;;7.93;2.50;;;;;;;;;;5096507;27;20447;-72
2021/05/28 15:49:48;;;;;;;5.57;2.50;;;;;;;;;;5101783;28;20488;-72